sensor_id;sensor_type;location;lat;lon;timestamp;pressure;altitude;pressure_sealevel;temperature;humidity
13235;BME280;6683;48.506;9.050;2023-03-08T00:01:50;96820.22;;;7.44;45.16
13235;BME280;6683;48.506;9.050;2023-03-08T00:04:54;96832.50;;;7.43;45.21
13235;BME280;6683;48.506;9.050;2023-03-08T00:07:56;96828.69;;;7.39;45.27
13235;BME280;6683;48.506;9.050;2023-03-08T00:11:04;96832.91;;;7.34;45.33
13235;BME280;6683;48.506;9.050;2023-03-08T00:14:07;96829.06;;;7.30;45.49
13235;BME280;6683;48.506;9.050;2023-03-08T00:17:10;96822.19;;;7.22;45.33
13235;BME280;6683;48.506;9.050;2023-03-08T00:20:13;96811.06;;;7.13;45.48
13235;BME280;6683;48.506;9.050;2023-03-08T00:23:15;96814.88;;;7.04;45.59
13235;BME280;6683;48.506;9.050;2023-03-08T00:26:19;96818.06;;;6.93;45.51
13235;BME280;6683;48.506;9.050;2023-03-08T00:29:22;96832.19;;;6.86;45.53
13235;BME280;6683;48.506;9.050;2023-03-08T00:32:25;96828.31;;;6.75;45.81
13235;BME280;6683;48.506;9.050;2023-03-08T00:35:27;96832.69;;;6.68;45.93
13235;BME280;6683;48.506;9.050;2023-03-08T00:38:32;96835.69;;;6.59;46.25
13235;BME280;6683;48.506;9.050;2023-03-08T00:41:36;96835.84;;;6.51;46.07
13235;BME280;6683;48.506;9.050;2023-03-08T00:44:39;96831.56;;;6.43;46.35
13235;BME280;6683;48.506;9.050;2023-03-08T00:47:41;96820.63;;;6.33;46.09
13235;BME280;6683;48.506;9.050;2023-03-08T00:50:44;96799.22;;;6.23;46.33
13235;BME280;6683;48.506;9.050;2023-03-08T00:53:47;96805.59;;;6.14;46.29
13235;BME280;6683;48.506;9.050;2023-03-08T00:56:51;96798.09;;;6.04;46.22
13235;BME280;6683;48.506;9.050;2023-03-08T00:59:53;96798.44;;;5.95;46.51
13235;BME280;6683;48.506;9.050;2023-03-08T01:02:56;96800.38;;;5.86;46.40
13235;BME280;6683;48.506;9.050;2023-03-08T01:06:04;96796.47;;;5.76;46.70
13235;BME280;6683;48.506;9.050;2023-03-08T01:09:07;96805.25;;;5.68;46.33
13235;BME280;6683;48.506;9.050;2023-03-08T01:12:11;96794.94;;;5.60;46.71
13235;BME280;6683;48.506;9.050;2023-03-08T01:15:13;96795.69;;;5.54;46.79
13235;BME280;6683;48.506;9.050;2023-03-08T01:18:16;96777.31;;;5.47;46.71
13235;BME280;6683;48.506;9.050;2023-03-08T01:21:19;96771.19;;;5.40;46.86
13235;BME280;6683;48.506;9.050;2023-03-08T01:24:21;96774.22;;;5.37;47.01
13235;BME280;6683;48.506;9.050;2023-03-08T01:27:25;96775.78;;;5.32;47.33
13235;BME280;6683;48.506;9.050;2023-03-08T01:30:27;96774.53;;;5.28;47.04
13235;BME280;6683;48.506;9.050;2023-03-08T01:33:30;96767.44;;;5.22;47.38
13235;BME280;6683;48.506;9.050;2023-03-08T01:36:33;96761.34;;;5.15;47.11
13235;BME280;6683;48.506;9.050;2023-03-08T01:39:36;96755.84;;;5.10;47.41
13235;BME280;6683;48.506;9.050;2023-03-08T01:42:40;96755.78;;;5.03;47.05
13235;BME280;6683;48.506;9.050;2023-03-08T01:46:05;96741.03;;;4.96;48.00
13235;BME280;6683;48.506;9.050;2023-03-08T01:49:10;96734.16;;;4.88;47.37
13235;BME280;6683;48.506;9.050;2023-03-08T01:52:17;96724.25;;;4.83;47.75
13235;BME280;6683;48.506;9.050;2023-03-08T01:55:21;96719.38;;;4.80;47.91
13235;BME280;6683;48.506;9.050;2023-03-08T01:58:26;96716.97;;;4.79;47.94
13235;BME280;6683;48.506;9.050;2023-03-08T02:01:28;96703.91;;;4.79;48.43
13235;BME280;6683;48.506;9.050;2023-03-08T02:04:32;96705.31;;;4.81;47.92
13235;BME280;6683;48.506;9.050;2023-03-08T02:07:34;96702.53;;;4.83;48.26
13235;BME280;6683;48.506;9.050;2023-03-08T02:10:37;96702.53;;;4.83;47.89
13235;BME280;6683;48.506;9.050;2023-03-08T02:13:42;96704.94;;;4.84;47.89
13235;BME280;6683;48.506;9.050;2023-03-08T02:16:44;96704.50;;;4.81;48.58
13235;BME280;6683;48.506;9.050;2023-03-08T02:19:51;96704.50;;;4.81;48.30
13235;BME280;6683;48.506;9.050;2023-03-08T02:23:08;96702.88;;;4.80;48.51
13235;BME280;6683;48.506;9.050;2023-03-08T02:26:11;96693.88;;;4.82;48.27
13235;BME280;6683;48.506;9.050;2023-03-08T02:29:13;96687.66;;;4.83;48.74
13235;BME280;6683;48.506;9.050;2023-03-08T02:32:16;96691.25;;;4.82;48.44
13235;BME280;6683;48.506;9.050;2023-03-08T02:35:19;96686.63;;;4.84;48.58
13235;BME280;6683;48.506;9.050;2023-03-08T02:38:23;96675.19;;;4.85;48.76
13235;BME280;6683;48.506;9.050;2023-03-08T02:41:25;96680.84;;;4.89;48.62
13235;BME280;6683;48.506;9.050;2023-03-08T02:44:28;96668.22;;;4.93;48.34
13235;BME280;6683;48.506;9.050;2023-03-08T02:47:30;96663.44;;;4.96;49.02
13235;BME280;6683;48.506;9.050;2023-03-08T02:50:32;96651.78;;;4.99;49.43
13235;BME280;6683;48.506;9.050;2023-03-08T02:53:37;96657.88;;;5.06;49.51
13235;BME280;6683;48.506;9.050;2023-03-08T02:56:40;96661.91;;;5.08;49.31
13235;BME280;6683;48.506;9.050;2023-03-08T02:59:42;96644.84;;;5.12;49.35
13235;BME280;6683;48.506;9.050;2023-03-08T03:02:44;96643.47;;;5.16;48.61
13235;BME280;6683;48.506;9.050;2023-03-08T03:05:47;96629.22;;;5.19;48.79
13235;BME280;6683;48.506;9.050;2023-03-08T03:08:50;96621.97;;;5.21;49.04
13235;BME280;6683;48.506;9.050;2023-03-08T03:11:53;96615.38;;;5.25;49.03
13235;BME280;6683;48.506;9.050;2023-03-08T03:14:55;96613.16;;;5.28;49.08
13235;BME280;6683;48.506;9.050;2023-03-08T03:17:58;96601.16;;;5.34;49.13
13235;BME280;6683;48.506;9.050;2023-03-08T03:21:02;96601.56;;;5.37;49.31
13235;BME280;6683;48.506;9.050;2023-03-08T03:24:07;96591.50;;;5.41;49.24
13235;BME280;6683;48.506;9.050;2023-03-08T03:27:09;96584.88;;;5.45;49.13
13235;BME280;6683;48.506;9.050;2023-03-08T03:30:12;96579.47;;;5.46;49.61
13235;BME280;6683;48.506;9.050;2023-03-08T03:33:15;96561.78;;;5.48;49.50
13235;BME280;6683;48.506;9.050;2023-03-08T03:36:20;96565.00;;;5.50;49.27
13235;BME280;6683;48.506;9.050;2023-03-08T03:39:24;96546.69;;;5.50;49.35
13235;BME280;6683;48.506;9.050;2023-03-08T03:42:27;96542.25;;;5.51;49.27
13235;BME280;6683;48.506;9.050;2023-03-08T03:45:29;96544.06;;;5.50;48.97
13235;BME280;6683;48.506;9.050;2023-03-08T03:48:34;96531.38;;;5.47;49.24
13235;BME280;6683;48.506;9.050;2023-03-08T03:51:36;96533.97;;;5.47;49.75
13235;BME280;6683;48.506;9.050;2023-03-08T03:54:40;96548.09;;;5.46;49.17
13235;BME280;6683;48.506;9.050;2023-03-08T03:57:42;96545.63;;;5.45;49.13
13235;BME280;6683;48.506;9.050;2023-03-08T04:00:46;96540.81;;;5.42;49.64
13235;BME280;6683;48.506;9.050;2023-03-08T04:03:49;96536.97;;;5.38;49.77
13235;BME280;6683;48.506;9.050;2023-03-08T04:06:51;96541.75;;;5.34;49.40
13235;BME280;6683;48.506;9.050;2023-03-08T04:09:56;96532.53;;;5.32;50.00
13235;BME280;6683;48.506;9.050;2023-03-08T04:12:59;96539.56;;;5.31;50.00
13235;BME280;6683;48.506;9.050;2023-03-08T04:16:09;96537.13;;;5.30;49.83
13235;BME280;6683;48.506;9.050;2023-03-08T04:19:12;96534.53;;;5.30;49.86
13235;BME280;6683;48.506;9.050;2023-03-08T04:22:15;96528.28;;;5.31;49.90
13235;BME280;6683;48.506;9.050;2023-03-08T04:25:19;96532.69;;;5.30;49.62
13235;BME280;6683;48.506;9.050;2023-03-08T04:28:21;96536.75;;;5.33;49.89
13235;BME280;6683;48.506;9.050;2023-03-08T04:31:26;96530.69;;;5.32;49.66
13235;BME280;6683;48.506;9.050;2023-03-08T04:34:28;96536.38;;;5.36;50.14
13235;BME280;6683;48.506;9.050;2023-03-08T04:37:31;96540.81;;;5.42;50.05
13235;BME280;6683;48.506;9.050;2023-03-08T04:40:35;96524.53;;;5.46;49.93
13235;BME280;6683;48.506;9.050;2023-03-08T04:43:58;96515.91;;;5.52;50.03
13235;BME280;6683;48.506;9.050;2023-03-08T04:47:01;96501.44;;;5.56;49.92
13235;BME280;6683;48.506;9.050;2023-03-08T04:50:04;96504.44;;;5.60;49.68
13235;BME280;6683;48.506;9.050;2023-03-08T04:53:07;96495.19;;;5.64;49.88
13235;BME280;6683;48.506;9.050;2023-03-08T04:56:13;96491.38;;;5.66;50.26
13235;BME280;6683;48.506;9.050;2023-03-08T04:59:17;96479.50;;;5.71;50.01
13235;BME280;6683;48.506;9.050;2023-03-08T05:02:20;96469.28;;;5.76;49.97
13235;BME280;6683;48.506;9.050;2023-03-08T05:05:22;96473.09;;;5.80;50.30
13235;BME280;6683;48.506;9.050;2023-03-08T05:08:24;96479.59;;;5.84;50.19
13235;BME280;6683;48.506;9.050;2023-03-08T05:11:28;96469.91;;;5.84;50.32
13235;BME280;6683;48.506;9.050;2023-03-08T05:14:31;96468.53;;;5.88;50.21
13235;BME280;6683;48.506;9.050;2023-03-08T05:17:34;96466.69;;;5.89;50.25
13235;BME280;6683;48.506;9.050;2023-03-08T05:20:36;96461.66;;;5.87;49.76
13235;BME280;6683;48.506;9.050;2023-03-08T05:23:39;96453.59;;;5.89;49.98
13235;BME280;6683;48.506;9.050;2023-03-08T05:26:43;96449.78;;;5.91;50.37
13235;BME280;6683;48.506;9.050;2023-03-08T05:29:45;96446.94;;;5.93;50.50
13235;BME280;6683;48.506;9.050;2023-03-08T05:32:47;96435.50;;;5.94;49.90
13235;BME280;6683;48.506;9.050;2023-03-08T05:35:53;96424.81;;;5.95;50.25
13235;BME280;6683;48.506;9.050;2023-03-08T05:38:56;96418.38;;;5.98;50.60
13235;BME280;6683;48.506;9.050;2023-03-08T05:41:59;96414.72;;;5.99;50.44
13235;BME280;6683;48.506;9.050;2023-03-08T05:45:02;96420.38;;;6.02;50.55
13235;BME280;6683;48.506;9.050;2023-03-08T05:48:05;96421.00;;;6.04;50.64
13235;BME280;6683;48.506;9.050;2023-03-08T05:51:10;96409.72;;;6.04;50.77
13235;BME280;6683;48.506;9.050;2023-03-08T05:54:12;96414.13;;;6.10;50.60
13235;BME280;6683;48.506;9.050;2023-03-08T05:57:16;96416.38;;;6.13;50.83
13235;BME280;6683;48.506;9.050;2023-03-08T06:00:19;96409.50;;;6.18;50.57
13235;BME280;6683;48.506;9.050;2023-03-08T06:03:22;96412.50;;;6.22;50.15
13235;BME280;6683;48.506;9.050;2023-03-08T06:06:25;96412.13;;;6.25;50.86
13235;BME280;6683;48.506;9.050;2023-03-08T06:09:28;96417.75;;;6.28;50.40
13235;BME280;6683;48.506;9.050;2023-03-08T06:12:32;96416.53;;;6.31;50.27
13235;BME280;6683;48.506;9.050;2023-03-08T06:15:34;96407.28;;;6.35;50.61
13235;BME280;6683;48.506;9.050;2023-03-08T06:18:38;96412.91;;;6.38;50.64
13235;BME280;6683;48.506;9.050;2023-03-08T06:21:40;96401.81;;;6.43;50.37
13235;BME280;6683;48.506;9.050;2023-03-08T06:24:44;96389.91;;;6.47;50.35
13235;BME280;6683;48.506;9.050;2023-03-08T06:27:50;96378.22;;;6.50;50.59
13235;BME280;6683;48.506;9.050;2023-03-08T06:30:53;96381.81;;;6.55;50.68
13235;BME280;6683;48.506;9.050;2023-03-08T06:33:56;96380.44;;;6.59;50.72
13235;BME280;6683;48.506;9.050;2023-03-08T06:36:59;96385.03;;;6.64;50.65
13235;BME280;6683;48.506;9.050;2023-03-08T06:40:02;96370.31;;;6.69;50.48
13235;BME280;6683;48.506;9.050;2023-03-08T06:43:07;96356.78;;;6.72;50.55
13235;BME280;6683;48.506;9.050;2023-03-08T06:46:12;96365.06;;;6.76;50.25
13235;BME280;6683;48.506;9.050;2023-03-08T06:49:16;96361.59;;;6.82;50.39
13235;BME280;6683;48.506;9.050;2023-03-08T06:52:19;96347.66;;;6.88;50.66
13235;BME280;6683;48.506;9.050;2023-03-08T06:55:21;96334.53;;;6.94;50.67
13235;BME280;6683;48.506;9.050;2023-03-08T06:58:25;96335.28;;;7.01;50.70
13235;BME280;6683;48.506;9.050;2023-03-08T07:01:28;96334.63;;;7.12;50.60
13235;BME280;6683;48.506;9.050;2023-03-08T07:04:30;96327.09;;;7.22;50.63
13235;BME280;6683;48.506;9.050;2023-03-08T07:07:33;96325.84;;;7.32;50.71
13235;BME280;6683;48.506;9.050;2023-03-08T07:10:36;96318.72;;;7.39;50.77
13235;BME280;6683;48.506;9.050;2023-03-08T07:13:40;96315.84;;;7.47;50.63
13235;BME280;6683;48.506;9.050;2023-03-08T07:16:43;96299.03;;;7.54;50.59
13235;BME280;6683;48.506;9.050;2023-03-08T07:19:45;96302.19;;;7.63;50.63
13235;BME280;6683;48.506;9.050;2023-03-08T07:22:48;96294.88;;;7.71;50.78
13235;BME280;6683;48.506;9.050;2023-03-08T07:25:51;96292.56;;;7.81;50.82
13235;BME280;6683;48.506;9.050;2023-03-08T07:28:55;96284.16;;;7.91;50.64
13235;BME280;6683;48.506;9.050;2023-03-08T07:31:57;96279.22;;;8.01;50.52
13235;BME280;6683;48.506;9.050;2023-03-08T07:35:00;96278.28;;;8.14;50.65
13235;BME280;6683;48.506;9.050;2023-03-08T07:38:02;96270.72;;;8.24;50.76
13235;BME280;6683;48.506;9.050;2023-03-08T07:41:05;96262.34;;;8.33;50.68
13235;BME280;6683;48.506;9.050;2023-03-08T07:44:08;96263.44;;;8.44;50.65
13235;BME280;6683;48.506;9.050;2023-03-08T07:47:11;96252.84;;;8.50;50.60
13235;BME280;6683;48.506;9.050;2023-03-08T07:50:13;96257.59;;;8.60;50.45
13235;BME280;6683;48.506;9.050;2023-03-08T07:53:15;96248.16;;;8.70;50.79
13235;BME280;6683;48.506;9.050;2023-03-08T07:56:18;96242.56;;;8.78;50.59
13235;BME280;6683;48.506;9.050;2023-03-08T07:59:22;96223.25;;;8.84;50.18
13235;BME280;6683;48.506;9.050;2023-03-08T08:02:25;96224.47;;;8.89;50.44
13235;BME280;6683;48.506;9.050;2023-03-08T08:05:27;96209.25;;;8.91;50.19
13235;BME280;6683;48.506;9.050;2023-03-08T08:08:30;96192.00;;;8.95;50.17
13235;BME280;6683;48.506;9.050;2023-03-08T08:11:32;96195.78;;;8.99;49.96
13235;BME280;6683;48.506;9.050;2023-03-08T08:14:36;96176.88;;;9.02;50.19
13235;BME280;6683;48.506;9.050;2023-03-08T08:17:39;96177.03;;;9.07;50.17
13235;BME280;6683;48.506;9.050;2023-03-08T08:20:41;96170.03;;;9.12;49.96
13235;BME280;6683;48.506;9.050;2023-03-08T08:23:44;96164.09;;;9.17;49.93
13235;BME280;6683;48.506;9.050;2023-03-08T08:26:47;96157.59;;;9.19;50.09
13235;BME280;6683;48.506;9.050;2023-03-08T08:29:51;96144.78;;;9.23;49.84
13235;BME280;6683;48.506;9.050;2023-03-08T08:32:53;96139.63;;;9.28;49.86
13235;BME280;6683;48.506;9.050;2023-03-08T08:35:55;96151.41;;;9.37;49.79
13235;BME280;6683;48.506;9.050;2023-03-08T08:38:58;96147.88;;;9.43;49.72
13235;BME280;6683;48.506;9.050;2023-03-08T08:42:00;96129.22;;;9.44;49.94
13235;BME280;6683;48.506;9.050;2023-03-08T08:45:06;96124.53;;;9.46;49.66
13235;BME280;6683;48.506;9.050;2023-03-08T08:48:09;96128.53;;;9.49;49.56
13235;BME280;6683;48.506;9.050;2023-03-08T08:51:12;96113.06;;;9.52;49.60
13235;BME280;6683;48.506;9.050;2023-03-08T08:54:15;96111.59;;;9.56;49.73
13235;BME280;6683;48.506;9.050;2023-03-08T08:57:17;96109.84;;;9.62;49.83
13235;BME280;6683;48.506;9.050;2023-03-08T09:00:22;96103.31;;;9.64;49.68
13235;BME280;6683;48.506;9.050;2023-03-08T09:03:24;96102.88;;;9.68;50.04
13235;BME280;6683;48.506;9.050;2023-03-08T09:06:28;96113.75;;;9.71;49.88
13235;BME280;6683;48.506;9.050;2023-03-08T09:09:30;96110.75;;;9.79;50.10
13235;BME280;6683;48.506;9.050;2023-03-08T09:12:33;96102.16;;;9.84;50.09
13235;BME280;6683;48.506;9.050;2023-03-08T09:15:37;96102.25;;;9.89;50.31
13235;BME280;6683;48.506;9.050;2023-03-08T09:18:39;96102.34;;;9.94;49.96
13235;BME280;6683;48.506;9.050;2023-03-08T09:21:42;96099.59;;;10.00;50.05
13235;BME280;6683;48.506;9.050;2023-03-08T09:24:44;96107.94;;;10.09;50.07
13235;BME280;6683;48.506;9.050;2023-03-08T09:27:50;96094.66;;;10.15;50.30
13235;BME280;6683;48.506;9.050;2023-03-08T09:30:54;96088.44;;;10.21;50.49
13235;BME280;6683;48.506;9.050;2023-03-08T09:33:56;96090.69;;;10.29;50.39
13235;BME280;6683;48.506;9.050;2023-03-08T09:36:59;96085.28;;;10.36;50.27
13235;BME280;6683;48.506;9.050;2023-03-08T09:40:03;96076.66;;;10.40;50.33
13235;BME280;6683;48.506;9.050;2023-03-08T09:43:20;96074.66;;;10.48;50.67
13235;BME280;6683;48.506;9.050;2023-03-08T09:46:29;96071.06;;;10.54;50.73
13235;BME280;6683;48.506;9.050;2023-03-08T09:49:33;96063.00;;;10.60;50.62
13235;BME280;6683;48.506;9.050;2023-03-08T09:52:39;96053.13;;;10.67;50.92
13235;BME280;6683;48.506;9.050;2023-03-08T09:55:47;96052.47;;;10.77;51.12
13235;BME280;6683;48.506;9.050;2023-03-08T09:58:54;96048.72;;;10.89;51.04
13235;BME280;6683;48.506;9.050;2023-03-08T10:02:16;96041.28;;;11.03;51.76
13235;BME280;6683;48.506;9.050;2023-03-08T10:05:23;96040.94;;;11.16;51.50
13235;BME280;6683;48.506;9.050;2023-03-08T10:08:32;96043.25;;;11.29;51.73
13235;BME280;6683;48.506;9.050;2023-03-08T10:11:42;96041.28;;;11.41;51.94
13235;BME280;6683;48.506;9.050;2023-03-08T10:14:49;96047.84;;;11.55;51.79
13235;BME280;6683;48.506;9.050;2023-03-08T10:17:58;96051.41;;;11.66;51.76
13235;BME280;6683;48.506;9.050;2023-03-08T10:21:01;96045.47;;;11.75;52.00
13235;BME280;6683;48.506;9.050;2023-03-08T10:24:14;96053.78;;;11.84;52.28
13235;BME280;6683;48.506;9.050;2023-03-08T10:27:20;96052.31;;;11.93;52.22
13235;BME280;6683;48.506;9.050;2023-03-08T10:30:26;96048.47;;;12.06;52.25
13235;BME280;6683;48.506;9.050;2023-03-08T10:33:33;96047.31;;;12.18;52.38
13235;BME280;6683;48.506;9.050;2023-03-08T10:36:48;96032.31;;;12.29;52.36
13235;BME280;6683;48.506;9.050;2023-03-08T10:39:53;96029.53;;;12.40;52.29
13235;BME280;6683;48.506;9.050;2023-03-08T10:43:01;96016.94;;;12.52;52.08
13235;BME280;6683;48.506;9.050;2023-03-08T10:46:11;96013.88;;;12.65;52.37
13235;BME280;6683;48.506;9.050;2023-03-08T10:49:18;96009.78;;;12.84;52.22
13235;BME280;6683;48.506;9.050;2023-03-08T10:52:26;95989.81;;;13.04;52.30
13235;BME280;6683;48.506;9.050;2023-03-08T10:55:28;95989.44;;;13.27;52.28
13235;BME280;6683;48.506;9.050;2023-03-08T10:58:34;96005.72;;;13.50;52.17
13235;BME280;6683;48.506;9.050;2023-03-08T11:01:47;95980.38;;;13.70;52.17
13235;BME280;6683;48.506;9.050;2023-03-08T11:04:54;95993.19;;;14.03;52.03
13235;BME280;6683;48.506;9.050;2023-03-08T11:07:59;95978.97;;;14.49;51.85
13235;BME280;6683;48.506;9.050;2023-03-08T11:11:08;95985.88;;;15.00;51.41
13235;BME280;6683;48.506;9.050;2023-03-08T11:14:11;95975.16;;;15.56;50.92
13235;BME280;6683;48.506;9.050;2023-03-08T11:17:18;95979.09;;;16.17;50.32
13235;BME280;6683;48.506;9.050;2023-03-08T11:20:29;95973.38;;;16.77;49.56
13235;BME280;6683;48.506;9.050;2023-03-08T11:23:38;95975.28;;;17.29;48.67
13235;BME280;6683;48.506;9.050;2023-03-08T11:26:57;95970.69;;;17.82;47.78
13235;BME280;6683;48.506;9.050;2023-03-08T11:30:21;95973.16;;;18.21;47.36
13235;BME280;6683;48.506;9.050;2023-03-08T11:33:53;95973.31;;;18.48;46.77
13235;BME280;6683;48.506;9.050;2023-03-08T11:37:07;95974.38;;;18.47;46.28
13235;BME280;6683;48.506;9.050;2023-03-08T11:40:22;95971.34;;;18.35;46.43
13235;BME280;6683;48.506;9.050;2023-03-08T11:43:48;95979.41;;;18.30;46.46
13235;BME280;6683;48.506;9.050;2023-03-08T11:47:30;95968.66;;;18.16;46.38
13235;BME280;6683;48.506;9.050;2023-03-08T11:50:45;95968.00;;;18.06;46.65
13235;BME280;6683;48.506;9.050;2023-03-08T11:54:03;95967.47;;;17.85;46.56
13235;BME280;6683;48.506;9.050;2023-03-08T11:57:11;95972.53;;;17.63;46.59
13235;BME280;6683;48.506;9.050;2023-03-08T12:00:22;95995.59;;;17.49;46.85
13235;BME280;6683;48.506;9.050;2023-03-08T12:03:30;95981.38;;;17.35;46.67
13235;BME280;6683;48.506;9.050;2023-03-08T12:06:39;95984.41;;;17.23;46.85
13235;BME280;6683;48.506;9.050;2023-03-08T12:09:52;95985.13;;;17.05;46.82
13235;BME280;6683;48.506;9.050;2023-03-08T12:13:00;95994.03;;;16.91;46.93
13235;BME280;6683;48.506;9.050;2023-03-08T12:16:10;95988.28;;;16.78;46.83
13235;BME280;6683;48.506;9.050;2023-03-08T12:19:24;95989.66;;;16.71;47.18
13235;BME280;6683;48.506;9.050;2023-03-08T12:22:41;95994.53;;;16.64;47.23
13235;BME280;6683;48.506;9.050;2023-03-08T12:25:50;96002.53;;;16.59;47.27
13235;BME280;6683;48.506;9.050;2023-03-08T12:28:58;96001.00;;;16.53;47.21
13235;BME280;6683;48.506;9.050;2023-03-08T12:32:02;95989.56;;;16.47;47.30
13235;BME280;6683;48.506;9.050;2023-03-08T12:35:24;95978.41;;;16.40;47.25
13235;BME280;6683;48.506;9.050;2023-03-08T12:38:33;95990.16;;;16.34;47.32
13235;BME280;6683;48.506;9.050;2023-03-08T12:41:37;95997.41;;;16.29;47.33
13235;BME280;6683;48.506;9.050;2023-03-08T12:44:39;96006.22;;;16.24;47.53
13235;BME280;6683;48.506;9.050;2023-03-08T12:47:42;96011.00;;;16.22;47.73
13235;BME280;6683;48.506;9.050;2023-03-08T12:51:00;96009.69;;;16.20;47.96
13235;BME280;6683;48.506;9.050;2023-03-08T12:54:03;96005.72;;;16.17;47.75
13235;BME280;6683;48.506;9.050;2023-03-08T12:57:20;95997.78;;;16.12;47.94
13235;BME280;6683;48.506;9.050;2023-03-08T13:00:27;96014.25;;;16.14;48.20
13235;BME280;6683;48.506;9.050;2023-03-08T13:03:37;95992.16;;;16.19;48.15
13235;BME280;6683;48.506;9.050;2023-03-08T13:07:16;95994.22;;;16.27;48.46
13235;BME280;6683;48.506;9.050;2023-03-08T13:10:22;95988.31;;;16.35;48.02
13235;BME280;6683;48.506;9.050;2023-03-08T13:13:42;95991.69;;;16.45;48.08
13235;BME280;6683;48.506;9.050;2023-03-08T13:16:45;95991.66;;;16.55;47.96
13235;BME280;6683;48.506;9.050;2023-03-08T13:19:49;95987.59;;;16.63;47.94
13235;BME280;6683;48.506;9.050;2023-03-08T13:23:04;96000.31;;;16.71;47.97
13235;BME280;6683;48.506;9.050;2023-03-08T13:26:49;96010.84;;;16.86;47.97
13235;BME280;6683;48.506;9.050;2023-03-08T13:30:17;96003.03;;;17.00;47.66
13235;BME280;6683;48.506;9.050;2023-03-08T13:33:23;95992.31;;;17.05;47.39
13235;BME280;6683;48.506;9.050;2023-03-08T13:36:28;95989.84;;;17.13;47.12
13235;BME280;6683;48.506;9.050;2023-03-08T13:39:31;95990.53;;;17.24;47.07
13235;BME280;6683;48.506;9.050;2023-03-08T13:42:34;95976.53;;;17.37;47.07
13235;BME280;6683;48.506;9.050;2023-03-08T13:45:38;95976.94;;;17.54;47.02
13235;BME280;6683;48.506;9.050;2023-03-08T13:48:43;95948.47;;;17.68;46.52
13235;BME280;6683;48.506;9.050;2023-03-08T13:51:50;95973.44;;;17.77;46.38
13235;BME280;6683;48.506;9.050;2023-03-08T13:54:55;95957.31;;;17.87;46.56
13235;BME280;6683;48.506;9.050;2023-03-08T13:57:58;95967.25;;;18.00;46.31
13235;BME280;6683;48.506;9.050;2023-03-08T14:01:11;95949.88;;;18.03;46.28
13235;BME280;6683;48.506;9.050;2023-03-08T14:04:19;95950.47;;;18.00;46.23
13235;BME280;6683;48.506;9.050;2023-03-08T14:07:24;95950.22;;;17.96;46.09
13235;BME280;6683;48.506;9.050;2023-03-08T14:10:36;95933.50;;;17.91;46.05
13235;BME280;6683;48.506;9.050;2023-03-08T14:13:39;95941.56;;;17.86;45.97
13235;BME280;6683;48.506;9.050;2023-03-08T14:16:51;95940.13;;;17.75;46.08
13235;BME280;6683;48.506;9.050;2023-03-08T14:19:57;95930.34;;;17.65;46.26
13235;BME280;6683;48.506;9.050;2023-03-08T14:23:01;95949.38;;;17.58;46.42
13235;BME280;6683;48.506;9.050;2023-03-08T14:26:04;95945.75;;;17.49;46.45
13235;BME280;6683;48.506;9.050;2023-03-08T14:29:17;95936.47;;;17.42;46.52
13235;BME280;6683;48.506;9.050;2023-03-08T14:32:29;95932.22;;;17.41;46.55
13235;BME280;6683;48.506;9.050;2023-03-08T14:35:34;95927.97;;;17.40;46.34
13235;BME280;6683;48.506;9.050;2023-03-08T14:38:38;95929.59;;;17.36;46.25
13235;BME280;6683;48.506;9.050;2023-03-08T14:41:40;95933.13;;;17.31;46.22
13235;BME280;6683;48.506;9.050;2023-03-08T14:44:50;95912.88;;;17.30;46.81
13235;BME280;6683;48.506;9.050;2023-03-08T14:47:56;95911.03;;;17.31;46.70
13235;BME280;6683;48.506;9.050;2023-03-08T14:51:01;95908.06;;;17.32;46.85
13235;BME280;6683;48.506;9.050;2023-03-08T14:54:22;95906.13;;;17.38;46.92
13235;BME280;6683;48.506;9.050;2023-03-08T14:57:27;95907.13;;;17.42;46.95
13235;BME280;6683;48.506;9.050;2023-03-08T15:00:30;95900.44;;;17.44;46.95
13235;BME280;6683;48.506;9.050;2023-03-08T15:03:34;95888.22;;;17.43;46.75
13235;BME280;6683;48.506;9.050;2023-03-08T15:06:38;95881.56;;;17.41;46.74
13235;BME280;6683;48.506;9.050;2023-03-08T15:09:41;95882.91;;;17.38;46.80
13235;BME280;6683;48.506;9.050;2023-03-08T15:12:43;95874.72;;;17.35;46.86
13235;BME280;6683;48.506;9.050;2023-03-08T15:15:46;95854.72;;;17.32;47.12
13235;BME280;6683;48.506;9.050;2023-03-08T15:18:51;95853.50;;;17.25;46.99
13235;BME280;6683;48.506;9.050;2023-03-08T15:21:53;95862.09;;;17.17;47.13
13235;BME280;6683;48.506;9.050;2023-03-08T15:24:55;95861.16;;;17.08;47.39
13235;BME280;6683;48.506;9.050;2023-03-08T15:27:57;95844.41;;;17.02;47.20
13235;BME280;6683;48.506;9.050;2023-03-08T15:31:00;95852.28;;;16.94;47.44
13235;BME280;6683;48.506;9.050;2023-03-08T15:34:03;95844.88;;;16.86;47.32
13235;BME280;6683;48.506;9.050;2023-03-08T15:37:07;95846.28;;;16.78;47.64
13235;BME280;6683;48.506;9.050;2023-03-08T15:40:13;95851.44;;;16.69;47.79
13235;BME280;6683;48.506;9.050;2023-03-08T15:43:16;95861.06;;;16.65;47.90
13235;BME280;6683;48.506;9.050;2023-03-08T15:46:18;95863.50;;;16.62;48.01
13235;BME280;6683;48.506;9.050;2023-03-08T15:49:21;95860.59;;;16.58;48.17
13235;BME280;6683;48.506;9.050;2023-03-08T15:52:24;95847.06;;;16.55;48.17
13235;BME280;6683;48.506;9.050;2023-03-08T15:55:29;95852.97;;;16.52;48.45
13235;BME280;6683;48.506;9.050;2023-03-08T15:58:32;95855.88;;;16.50;48.18
13235;BME280;6683;48.506;9.050;2023-03-08T16:01:35;95856.44;;;16.47;48.39
13235;BME280;6683;48.506;9.050;2023-03-08T16:04:39;95862.28;;;16.44;48.43
13235;BME280;6683;48.506;9.050;2023-03-08T16:07:50;95884.16;;;16.41;48.52
13235;BME280;6683;48.506;9.050;2023-03-08T16:10:53;95893.53;;;16.34;48.73
13235;BME280;6683;48.506;9.050;2023-03-08T16:13:56;95898.13;;;16.23;49.04
13235;BME280;6683;48.506;9.050;2023-03-08T16:16:58;95909.72;;;16.04;49.61
13235;BME280;6683;48.506;9.050;2023-03-08T16:20:02;95902.97;;;15.77;50.27
13235;BME280;6683;48.506;9.050;2023-03-08T16:23:06;95897.25;;;15.50;50.69
13235;BME280;6683;48.506;9.050;2023-03-08T16:26:11;95898.13;;;15.26;51.48
13235;BME280;6683;48.506;9.050;2023-03-08T16:29:14;95911.72;;;15.09;52.08
13235;BME280;6683;48.506;9.050;2023-03-08T16:32:16;95912.56;;;14.94;52.64
13235;BME280;6683;48.506;9.050;2023-03-08T16:35:20;95926.13;;;14.83;52.99
13235;BME280;6683;48.506;9.050;2023-03-08T16:38:23;95925.59;;;14.76;53.25
13235;BME280;6683;48.506;9.050;2023-03-08T16:41:25;95926.97;;;14.68;53.61
13235;BME280;6683;48.506;9.050;2023-03-08T16:44:29;95918.44;;;14.61;53.98